createdAt,value
2022-11-24T00:04:01.109Z,3.13
2022-11-24T00:14:05.222Z,4.23
2022-11-24T00:24:10.799Z,4.33
2022-11-24T00:34:15.476Z,1.23
2022-11-24T00:44:19.829Z,1.97
2022-11-24T00:54:22.934Z,3.83
2022-11-24T01:04:27.478Z,1.50
2022-11-24T01:14:31.266Z,3.43
2022-11-24T01:24:36.037Z,3.63
2022-11-24T01:34:39.186Z,2.10
2022-11-24T01:44:43.573Z,2.07
2022-11-24T01:54:50.957Z,3.60
2022-11-24T02:04:56.413Z,3.60
2022-11-24T02:15:00.470Z,3.23
2022-11-24T02:25:10.441Z,3.73
2022-11-24T02:35:14.962Z,3.87
2022-11-24T02:45:18.683Z,3.60
2022-11-24T02:55:23.533Z,2.90
2022-11-24T03:05:26.711Z,2.07
2022-11-24T03:15:31.145Z,3.40
2022-11-24T03:25:34.271Z,1.17
2022-11-24T03:35:38.651Z,2.63
2022-11-24T03:45:46.316Z,1.53
2022-11-24T03:55:51.079Z,1.20
2022-11-24T04:05:54.107Z,2.87
2022-11-24T04:15:58.500Z,1.50
2022-11-24T04:26:01.509Z,2.60
2022-11-24T04:36:06.506Z,2.13
2022-11-24T04:46:11.612Z,2.77
2022-11-24T04:56:16.203Z,3.00
2022-11-24T05:06:19.212Z,3.20
2022-11-24T05:16:23.746Z,4.20
2022-11-24T05:26:27.885Z,2.10
2022-11-24T05:36:57.890Z,1.93
2022-11-24T05:47:00.924Z,3.10
2022-11-24T05:57:05.488Z,4.83
2022-11-24T06:07:09.485Z,2.60
2022-11-24T06:17:14.169Z,2.97
2022-11-24T06:27:17.241Z,1.77
2022-11-24T06:37:21.567Z,4.57
2022-11-24T06:47:24.636Z,3.90
2022-11-24T06:57:31.161Z,4.57
2022-11-24T07:07:34.224Z,3.43
2022-11-24T07:17:39.125Z,2.23
2022-11-24T07:27:42.523Z,3.00
2022-11-24T07:37:47.113Z,3.97
2022-11-24T07:47:50.110Z,2.60
2022-11-24T07:57:54.646Z,4.17
2022-11-24T08:07:57.791Z,3.90
2022-11-24T08:18:03.852Z,4.40
2022-11-24T08:28:06.946Z,2.30
2022-11-24T08:38:11.371Z,3.40
2022-11-24T08:48:14.369Z,4.90
2022-11-24T08:58:18.882Z,4.70
2022-11-24T09:08:21.868Z,5.37
2022-11-24T09:18:30.141Z,4.57
2022-11-24T09:28:33.562Z,5.97
2022-11-24T09:38:38.248Z,8.20
2022-11-24T09:48:44.620Z,5.70
2022-11-24T09:58:51.691Z,7.23
2022-11-24T10:09:24.455Z,6.67
2022-11-24T10:19:41.275Z,7.67
2022-11-24T10:29:44.932Z,5.37
2022-11-24T10:40:00.235Z,4.90
2022-11-24T10:50:05.920Z,5.37
2022-11-24T11:00:32.896Z,5.63
2022-11-24T11:10:36.079Z,6.73
2022-11-24T11:20:40.531Z,5.93
2022-11-24T11:31:17.248Z,4.73
2022-11-24T11:41:34.792Z,5.70
2022-11-24T11:51:49.930Z,5.57
2022-11-24T12:02:31.154Z,6.50
2022-11-24T12:12:52.937Z,3.23
2022-11-24T12:23:04.501Z,5.10
2022-11-24T12:33:32.280Z,7.63
2022-11-24T12:43:39.009Z,7.90
2022-11-24T12:53:43.708Z,4.90
2022-11-24T13:03:58.951Z,6.00
2022-11-24T13:14:06.448Z,7.40
2022-11-24T13:24:26.036Z,5.43
2022-11-24T13:35:02.712Z,9.47
2022-11-24T13:45:45.801Z,7.83
2022-11-24T13:55:58.896Z,6.00
2022-11-24T14:06:04.161Z,5.17
2022-11-24T14:16:15.224Z,7.83
2022-11-24T14:26:22.442Z,5.93
2022-11-24T14:36:25.461Z,7.93
2022-11-24T14:46:29.944Z,6.00
2022-11-24T14:56:35.586Z,5.63
2022-11-24T15:06:40.546Z,6.10
2022-11-24T15:16:43.705Z,7.63
2022-11-24T15:26:48.121Z,7.03
2022-11-24T15:36:51.179Z,5.50
2022-11-24T15:46:55.660Z,6.43
2022-11-24T15:56:58.768Z,6.77
2022-11-24T16:07:06.220Z,8.77
2022-11-24T16:17:09.309Z,11.70
2022-11-24T16:27:13.749Z,8.20
2022-11-24T16:37:16.746Z,8.80
2022-11-24T16:47:21.184Z,10.00
2022-11-24T16:57:24.234Z,8.53
2022-11-24T17:07:28.870Z,9.37
2022-11-24T17:17:31.928Z,6.83
2022-11-24T17:27:36.324Z,6.77
2022-11-24T17:37:39.290Z,10.13
2022-11-24T17:47:43.872Z,8.03
2022-11-24T17:57:46.998Z,10.67
2022-11-24T18:07:51.405Z,9.87
2022-11-24T18:17:54.447Z,13.20
2022-11-24T18:27:58.796Z,14.50
2022-11-24T18:38:01.817Z,10.50
2022-11-24T18:48:06.670Z,8.70
2022-11-24T18:58:09.684Z,10.60
2022-11-24T19:08:14.119Z,11.47
2022-11-24T19:18:17.281Z,8.57
2022-11-24T19:28:21.729Z,11.53
2022-11-24T19:38:29.721Z,11.50
2022-11-24T19:48:35.304Z,12.80
2022-11-24T19:58:38.747Z,14.17
2022-11-24T20:08:44.022Z,11.33
2022-11-24T20:18:48.267Z,12.30
2022-11-24T20:28:54.169Z,11.37
2022-11-24T20:38:59.346Z,8.03
2022-11-24T20:49:04.496Z,8.00
2022-11-24T20:59:07.863Z,9.70
2022-11-24T21:09:12.399Z,8.47
2022-11-24T21:19:18.129Z,6.17
2022-11-24T21:29:25.487Z,7.63
2022-11-24T21:39:28.966Z,8.87
2022-11-24T21:49:33.341Z,7.23
2022-11-24T21:59:36.489Z,7.20
2022-11-24T22:09:40.876Z,7.57
2022-11-24T22:19:43.941Z,5.90
2022-11-24T22:29:53.869Z,8.13
2022-11-24T22:39:57.177Z,7.30
2022-11-24T22:50:01.609Z,6.97
2022-11-24T23:00:05.951Z,4.80
2022-11-24T23:10:11.429Z,8.77
2022-11-24T23:20:15.447Z,8.00
2022-11-24T23:30:19.948Z,5.40
2022-11-24T23:40:23.018Z,6.43
2022-11-24T23:50:27.358Z,5.47
